Time;durP1;ratioP1;P1;durP2;ratioP2;P2;SDS_P1;SDS_P2;PMS_P1;PMS_P2;Temp;Humidity;BMP_temperature;BMP_pressure;BME280_temperature;BME280_humidity;BME280_pressure;Samples;Min_cycle;Max_cycle;Signal;HPM_P1;HPM_P2
2023/10/29 00:00:16;;;;;;;;;;;11.70;99.90;;;;;;4866020;29;19957;-78
2023/10/29 00:03:12;;;;;;;;;;;11.70;99.90;;;;;;4831567;29;19953;-77
2023/10/29 00:06:00;;;;;;;;;;;11.70;99.90;;;;;;4834303;29;19928;-78
2023/10/29 00:08:25;;;;;;;;;;;11.60;99.90;;;;;;4837429;29;19912;-77
2023/10/29 00:10:54;;;;;;;;;;;11.60;99.90;;;;;;4822600;29;19965;-78
2023/10/29 00:13:19;;;;;;;;;;;11.60;99.90;;;;;;4822242;29;19927;-79
2023/10/29 00:15:45;;;;;;;;;;;11.50;99.90;;;;;;4821489;29;19940;-77
2023/10/29 00:21:42;;;;;;;;;;;11.50;99.90;;;;;;4852615;29;19919;-79
2023/10/29 00:24:08;;;;;;;;;;;11.50;99.90;;;;;;4871127;29;20230;-78
2023/10/29 00:26:34;;;;;;;;;;;11.60;99.90;;;;;;4870452;29;19958;-79
2023/10/29 00:29:00;;;;;;;;;;;11.60;99.90;;;;;;4856664;29;19957;-77
2023/10/29 08:03:36;;;;;;;;;;;13.20;98.70;;;;;;4910768;29;20003;-77
2023/10/29 08:06:05;;;;;;;;;;;13.20;98.30;;;;;;4890538;29;19916;-77
2023/10/29 08:09:11;;;;;;;;;;;;;;;;;;;;;
2023/10/29 08:11:55;;;;;;;;;;;13.30;98.20;;;;;;4891319;29;19915;-77
2023/10/29 08:14:46;;;;;;;;;;;13.50;98.10;;;;;;4875198;29;20197;-76
2023/10/29 08:17:17;;;;;;;;;;;13.70;97.90;;;;;;4885574;29;19911;-76
2023/10/29 08:19:46;;;;;;;;;;;13.90;96.90;;;;;;4893377;29;19911;-76
2023/10/29 08:22:12;;;;;;;;;;;14.00;96.30;;;;;;4893275;29;19978;-76
2023/10/29 08:24:39;;;;;;;;;;;14.00;96.20;;;;;;4892808;29;19919;-76
2023/10/29 08:27:08;;;;;;;;;;;14.00;96.30;;;;;;4892926;29;19915;-75
2023/10/29 08:29:39;;;;;;;;;;;14.00;96.50;;;;;;4893770;29;19911;-77
2023/10/29 08:32:08;;;;;;;;;;;14.10;96.40;;;;;;4893061;29;19926;-76
2023/10/29 08:34:36;;;;;;;;;;;14.30;95.50;;;;;;4907792;29;19916;-76
2023/10/29 08:37:08;;;;;;;;;;;14.50;96.10;;;;;;4910295;29;19916;-76
2023/10/29 08:39:36;;;;;;;;;;;14.70;95.80;;;;;;4894493;29;19911;-78
2023/10/29 08:42:17;;;;;;;;;;;14.80;95.50;;;;;;4890067;29;19979;-76
2023/10/29 08:44:43;;;;;;;;;;;15.00;94.70;;;;;;4910391;29;19942;-78
2023/10/29 08:56:56;;;;;;;;;;;15.60;92.20;;;;;;5544057;23;19923;-81
2023/10/29 08:59:47;;;;;;;;;;;15.70;91.80;;;;;;4840499;29;20244;-79
2023/10/29 09:02:25;;;;;;;;;;;15.80;91.80;;;;;;4851727;29;19948;-79
2023/10/29 09:05:07;;;;;;;;;;;15.90;91.60;;;;;;4850082;29;19916;-79
2023/10/29 09:07:33;;;;;;;;;;;16.00;91.70;;;;;;4852491;29;19965;-79
2023/10/29 09:10:05;;;;;;;;;;;16.20;91.90;;;;;;4851170;29;19913;-79
2023/10/29 09:16:05;;;;;;;;;;;16.60;92.90;;;;;;4851539;29;19938;-79
2023/10/29 09:18:40;;;;;;;;;;;16.80;92.50;;;;;;4835826;29;20232;-77
2023/10/29 09:21:06;;;;;;;;;;;16.80;91.30;;;;;;4836147;29;20221;-81
2023/10/29 09:24:16;;;;;;;;;;;16.60;91.10;;;;;;4855167;29;19994;-80
2023/10/29 09:26:42;;;;;;;;;;;16.60;91.20;;;;;;4836623;29;19917;-80
2023/10/29 09:29:41;;;;;;;;;;;16.60;91.10;;;;;;4839189;29;19944;-79
2023/10/29 09:32:26;;;;;;;;;;;16.50;91.30;;;;;;4820696;29;19950;-80
2023/10/29 09:34:52;;;;;;;;;;;16.50;91.50;;;;;;4824727;29;19947;-79
2023/10/29 09:37:42;;;;;;;;;;;;;;;;;;;;;
2023/10/29 09:40:58;;;;;;;;;;;16.40;92.10;;;;;;4864575;29;20001;-77
2023/10/29 09:43:58;;;;;;;;;;;16.30;92.00;;;;;;4874761;29;19919;-79
2023/10/29 09:46:30;;;;;;;;;;;16.10;92.70;;;;;;4858138;29;19916;-80
2023/10/29 09:49:07;;;;;;;;;;;16.00;92.90;;;;;;4873105;29;19918;-79
2023/10/29 09:52:05;;;;;;;;;;;15.90;93.20;;;;;;4873766;29;19943;-80
2023/10/29 09:57:53;;;;;;;;;;;16.40;93.10;;;;;;4889821;29;19954;-79
2023/10/29 10:00:48;;;;;;;;;;;16.50;92.80;;;;;;4880869;29;19918;-79
2023/10/29 10:04:07;;;;;;;;;;;16.50;92.90;;;;;;4854510;29;19912;-80
2023/10/29 10:07:16;;;;;;;;;;;16.60;92.60;;;;;;4833231;29;19992;-80
2023/10/29 10:10:00;;;;;;;;;;;16.80;92.50;;;;;;4835688;29;19912;-78
2023/10/29 10:12:31;;;;;;;;;;;16.80;92.30;;;;;;4840755;29;20178;-75
2023/10/29 10:15:13;;;;;;;;;;;16.90;92.10;;;;;;4870293;29;19912;-82
2023/10/29 10:17:56;;;;;;;;;;;16.90;92.30;;;;;;4876022;29;20201;-81
2023/10/29 10:20:22;;;;;;;;;;;16.80;91.90;;;;;;4855707;29;19919;-77
2023/10/29 10:23:01;;;;;;;;;;;16.70;91.50;;;;;;4856257;29;19912;-77
2023/10/29 10:25:33;;;;;;;;;;;16.70;91.60;;;;;;4854842;29;19916;-78
2023/10/29 10:28:05;;;;;;;;;;;16.60;91.40;;;;;;4855981;29;19928;-77
2023/10/29 10:30:43;;;;;;;;;;;16.40;91.30;;;;;;4856633;29;19916;-79
2023/10/29 10:33:22;;;;;;;;;;;16.50;91.60;;;;;;4870870;29;19975;-76
2023/10/29 10:36:13;;;;;;;;;;;16.40;91.90;;;;;;4869562;29;20139;-78
2023/10/29 10:39:01;;;;;;;;;;;16.40;91.70;;;;;;4865348;29;19971;-77
2023/10/29 10:41:41;;;;;;;;;;;16.30;91.80;;;;;;4854724;29;19936;-78
2023/10/29 10:44:57;;;;;;;;;;;16.40;91.70;;;;;;4871090;29;19951;-76
2023/10/29 10:51:10;;;;;;;;;;;16.70;91.50;;;;;;4850534;29;20102;-80
2023/10/29 10:53:37;;;;;;;;;;;16.90;90.90;;;;;;4854879;29;19983;-79
2023/10/29 10:56:36;;;;;;;;;;;17.00;91.10;;;;;;4869698;29;20214;-76
2023/10/29 11:06:49;;;;;;;;;;;17.40;90.60;;;;;;4851828;29;19924;-77
2023/10/29 11:09:39;;;;;;;;;;;17.30;89.60;;;;;;4864890;29;19953;-77
2023/10/29 11:12:29;;;;;;;;;;;17.10;88.80;;;;;;4837798;29;19912;-78
2023/10/29 11:15:26;;;;;;;;;;;17.20;88.80;;;;;;4851846;29;19912;-79
2023/10/29 11:18:18;;;;;;;;;;;17.30;88.70;;;;;;4837621;29;19920;-77
2023/10/29 11:21:35;;;;;;;;;;;17.20;89.30;;;;;;4855784;29;19927;-78
2023/10/29 11:24:53;;;;;;;;;;;17.30;89.10;;;;;;4850790;29;19983;-80
2023/10/29 11:27:41;;;;;;;;;;;17.40;89.80;;;;;;4853537;29;19916;-78
2023/10/29 11:30:43;;;;;;;;;;;17.30;90.10;;;;;;4868558;29;19947;-80
2023/10/29 11:33:31;;;;;;;;;;;17.30;90.00;;;;;;4852682;29;19920;-79
2023/10/29 11:36:57;;;;;;;;;;;17.60;89.20;;;;;;4851931;29;19926;-79
2023/10/29 11:39:51;;;;;;;;;;;17.90;88.10;;;;;;4837977;29;19920;-80
2023/10/29 11:43:01;;;;;;;;;;;18.10;87.40;;;;;;4837505;29;19972;-80
2023/10/29 11:52:49;;;;;;;;;;;18.80;86.90;;;;;;4812383;29;19970;-81
2023/10/29 11:55:51;;;;;;;;;;;19.40;85.50;;;;;;4810729;29;19937;-79
2023/10/29 11:58:45;;;;;;;;;;;19.60;85.10;;;;;;4787765;29;20061;-79
2023/10/29 12:01:38;;;;;;;;;;;19.70;85.40;;;;;;4802768;29;19941;-78
2023/10/29 12:04:31;;;;;;;;;;;19.70;84.70;;;;;;4812856;29;19963;-81
2023/10/29 12:07:16;;;;;;;;;;;19.80;84.60;;;;;;4813001;29;19918;-79
2023/10/29 12:13:07;;;;;;;;;;;21.00;82.40;;;;;;4734586;30;19950;-80
2023/10/29 12:18:51;;;;;;;;;;;24.50;74.30;;;;;;4793492;29;19921;-79
2023/10/29 12:21:54;;;;;;;;;;;26.30;70.00;;;;;;4780184;30;19920;-80
2023/10/29 12:24:19;;;;;;;;;;;26.90;67.70;;;;;;4751298;30;20013;-80
2023/10/29 12:30:07;;;;;;;;;;;26.10;67.10;;;;;;4797792;30;19921;-80
2023/10/29 12:32:52;;;;;;;;;;;;;;;;;;;;;
2023/10/29 12:35:48;;;;;;;;;;;25.20;68.40;;;;;;4797606;29;19952;-81
2023/10/29 12:38:18;;;;;;;;;;;24.50;69.50;;;;;;4811333;29;20247;-80
2023/10/29 12:41:04;;;;;;;;;;;23.70;70.90;;;;;;4797911;30;19913;-78
2023/10/29 12:44:05;;;;;;;;;;;;;;;;;;;;;
2023/10/29 12:47:17;;;;;;;;;;;22.70;71.20;;;;;;4780905;30;20115;-80
2023/10/29 12:50:00;;;;;;;;;;;22.30;70.00;;;;;;4820681;29;19913;-80
2023/10/29 12:53:03;;;;;;;;;;;22.30;70.00;;;;;;4873427;29;19936;-79
2023/10/29 12:55:28;;;;;;;;;;;22.10;67.00;;;;;;4889799;29;19919;-78
2023/10/29 13:01:32;;;;;;;;;;;22.00;66.00;;;;;;4890646;29;19983;-77
2023/10/29 13:04:38;;;;;;;;;;;21.80;65.10;;;;;;4877878;29;19943;-77
2023/10/29 13:10:06;;;;;;;;;;;22.20;63.30;;;;;;4880112;29;19912;-79
2023/10/29 13:12:58;;;;;;;;;;;22.80;62.80;;;;;;4870532;29;20002;-80
2023/10/29 13:16:21;;;;;;;;;;;24.50;60.50;;;;;;4870297;29;19919;-79
2023/10/29 13:19:10;;;;;;;;;;;25.10;58.10;;;;;;4839321;29;19938;-80
2023/10/29 13:22:12;;;;;;;;;;;25.30;58.20;;;;;;4870746;29;20004;-81
2023/10/29 13:24:38;;;;;;;;;;;25.00;62.00;;;;;;4840378;29;19919;-80
2023/10/29 13:27:19;;;;;;;;;;;24.80;62.60;;;;;;4855125;29;19916;-80
2023/10/29 13:29:51;;;;;;;;;;;24.80;63.90;;;;;;4881098;29;19912;-80
2023/10/29 13:32:48;;;;;;;;;;;24.30;65.10;;;;;;4870247;29;19912;-79
2023/10/29 13:35:24;;;;;;;;;;;24.10;67.00;;;;;;4870213;29;19912;-81
2023/10/29 13:38:14;;;;;;;;;;;23.50;66.40;;;;;;4871667;29;19984;-81
2023/10/29 13:40:45;;;;;;;;;;;23.00;67.10;;;;;;4855529;29;20206;-80
2023/10/29 13:43:23;;;;;;;;;;;22.90;65.00;;;;;;4855490;29;19912;-82
2023/10/29 13:46:07;;;;;;;;;;;22.60;62.60;;;;;;4883038;29;19994;-81
2023/10/29 14:02:25;;;;;;;;;;;21.80;65.20;;;;;;4745216;30;19922;-81
2023/10/29 14:05:00;;;;;;;;;;;21.80;65.60;;;;;;4745184;30;19925;-82
2023/10/29 14:08:00;;;;;;;;;;;21.90;64.60;;;;;;4739361;30;19929;-81
2023/10/29 14:10:38;;;;;;;;;;;;;;;;;;;;;
2023/10/29 14:13:58;;;;;;;;;;;21.90;65.10;;;;;;4742700;30;20089;-82
2023/10/29 14:23:27;;;;;;;;;;;;;;;;;;;;;
2023/10/29 14:33:24;;;;;;;;;;;21.60;63.80;;;;;;4776173;30;20225;-80
2023/10/29 14:36:23;;;;;;;;;;;21.80;63.70;;;;;;4790441;30;19917;-79
2023/10/29 14:39:18;;;;;;;;;;;22.00;61.70;;;;;;4795016;30;19982;-80
2023/10/29 14:44:32;;;;;;;;;;;21.70;61.80;;;;;;4756842;30;20143;-79
2023/10/29 14:50:51;;;;;;;;;;;21.60;63.70;;;;;;4707403;30;19936;-80
2023/10/29 14:53:45;;;;;;;;;;;21.50;63.30;;;;;;4746598;30;19921;-80
2023/10/29 14:56:18;;;;;;;;;;;21.40;62.50;;;;;;4745596;30;19950;-77
2023/10/29 14:58:45;;;;;;;;;;;21.30;62.60;;;;;;4762696;30;19949;-79
2023/10/29 15:04:25;;;;;;;;;;;21.10;63.90;;;;;;4773077;30;19981;-77
2023/10/29 15:07:32;;;;;;;;;;;;;;;;;;;;;
2023/10/29 15:10:23;;;;;;;;;;;20.80;64.30;;;;;;4778751;30;19920;-79
2023/10/29 15:12:49;;;;;;;;;;;20.60;64.90;;;;;;4778503;30;20199;-79
2023/10/29 15:15:32;;;;;;;;;;;20.40;65.10;;;;;;4779819;30;19914;-80
2023/10/29 15:18:23;;;;;;;;;;;20.30;66.00;;;;;;4777864;30;19931;-79
2023/10/29 15:21:18;;;;;;;;;;;20.20;66.40;;;;;;4786786;29;20128;-78
2023/10/29 15:27:17;;;;;;;;;;;20.10;67.10;;;;;;4831798;29;20031;-79
2023/10/29 15:30:12;;;;;;;;;;;20.00;67.60;;;;;;4801143;29;19953;-79
2023/10/29 15:32:40;;;;;;;;;;;19.90;67.50;;;;;;4827851;29;19920;-80
2023/10/29 15:35:46;;;;;;;;;;;19.80;69.20;;;;;;4796848;29;19946;-78
2023/10/29 15:38:22;;;;;;;;;;;19.60;70.00;;;;;;4801488;29;19920;-78
2023/10/29 15:41:10;;;;;;;;;;;19.60;69.00;;;;;;4835439;29;20233;-79
2023/10/29 15:43:42;;;;;;;;;;;19.40;68.60;;;;;;4838080;29;20005;-78
2023/10/29 15:46:21;;;;;;;;;;;19.40;70.20;;;;;;4838532;29;19923;-78
2023/10/29 15:48:50;;;;;;;;;;;19.20;71.70;;;;;;4835340;29;20210;-78
2023/10/29 15:54:20;;;;;;;;;;;18.90;74.30;;;;;;4853528;29;19913;-80
2023/10/29 15:57:11;;;;;;;;;;;18.70;74.60;;;;;;4866185;29;19957;-79
2023/10/29 16:02:24;;;;;;;;;;;18.50;75.30;;;;;;4892125;29;19960;-79
2023/10/29 16:04:56;;;;;;;;;;;18.30;76.30;;;;;;4874967;29;19919;-80
2023/10/29 16:07:25;;;;;;;;;;;18.20;76.50;;;;;;4875104;29;19920;-79
2023/10/29 16:09:52;;;;;;;;;;;18.10;77.40;;;;;;4875602;29;19935;-82
2023/10/29 16:12:18;;;;;;;;;;;18.10;78.40;;;;;;4861389;29;19943;-81
2023/10/29 16:22:07;;;;;;;;;;;17.70;81.50;;;;;;4872678;29;19992;-79
2023/10/29 16:24:54;;;;;;;;;;;17.60;82.10;;;;;;4872628;29;19912;-79
2023/10/29 16:27:21;;;;;;;;;;;17.50;82.40;;;;;;4873191;29;19964;-79
2023/10/29 16:33:08;;;;;;;;;;;17.30;82.30;;;;;;4855306;29;20205;-78
2023/10/29 16:35:40;;;;;;;;;;;17.30;84.10;;;;;;4888441;29;19979;-77
2023/10/29 16:38:19;;;;;;;;;;;17.20;84.30;;;;;;4887057;29;19919;-77
2023/10/29 16:41:28;;;;;;;;;;;17.20;84.90;;;;;;4876449;29;20276;-77
2023/10/29 16:44:01;;;;;;;;;;;17.00;85.00;;;;;;4871156;29;19912;-76
2023/10/29 16:46:31;;;;;;;;;;;17.00;85.10;;;;;;4870404;29;19919;-79
2023/10/29 16:49:06;;;;;;;;;;;17.00;86.10;;;;;;4856181;29;19937;-78
2023/10/29 16:51:32;;;;;;;;;;;17.00;85.40;;;;;;4857804;29;19936;-80
2023/10/29 16:54:07;;;;;;;;;;;16.90;85.50;;;;;;4889916;29;19912;-77
2023/10/29 16:56:34;;;;;;;;;;;17.00;85.50;;;;;;4873245;29;19923;-79
2023/10/29 16:59:00;;;;;;;;;;;16.90;86.30;;;;;;4884107;29;19916;-77
2023/10/29 17:01:53;;;;;;;;;;;16.90;85.60;;;;;;4858570;29;19939;-77
2023/10/29 17:04:44;;;;;;;;;;;16.90;85.30;;;;;;4840924;29;19996;-77
2023/10/29 17:10:14;;;;;;;;;;;17.10;85.80;;;;;;4856267;29;19918;-77
2023/10/29 17:12:52;;;;;;;;;;;17.10;85.40;;;;;;4855342;29;19912;-78
2023/10/29 17:15:17;;;;;;;;;;;17.10;90.30;;;;;;4855603;29;19912;-77
2023/10/29 17:17:46;;;;;;;;;;;17.00;91.70;;;;;;4866482;29;19919;-77
2023/10/29 17:20:12;;;;;;;;;;;16.80;94.00;;;;;;4839438;29;20095;-78
2023/10/29 17:22:37;;;;;;;;;;;16.50;95.50;;;;;;4871412;29;20197;-77
2023/10/29 17:25:38;;;;;;;;;;;16.10;97.60;;;;;;4855631;29;20198;-81
2023/10/29 17:28:13;;;;;;;;;;;15.90;99.10;;;;;;4856116;29;19920;-79
2023/10/29 17:31:26;;;;;;;;;;;15.60;99.90;;;;;;4857952;29;20136;-79
2023/10/29 17:33:52;;;;;;;;;;;15.30;99.90;;;;;;4855782;29;19961;-79
2023/10/29 17:37:04;;;;;;;;;;;15.10;99.90;;;;;;4857588;29;20188;-82
2023/10/29 17:39:31;;;;;;;;;;;15.00;99.90;;;;;;4854836;29;19982;-78
2023/10/29 17:41:57;;;;;;;;;;;14.80;99.90;;;;;;4853883;29;19912;-79
2023/10/29 17:44:33;;;;;;;;;;;14.80;99.90;;;;;;4872056;29;19916;-78
2023/10/29 17:47:36;;;;;;;;;;;14.80;99.90;;;;;;4875777;29;19922;-79
2023/10/29 17:50:25;;;;;;;;;;;14.60;99.90;;;;;;4872941;29;19948;-76
2023/10/29 17:53:19;;;;;;;;;;;14.60;99.90;;;;;;4837784;29;19920;-78
2023/10/29 17:56:07;;;;;;;;;;;14.40;99.90;;;;;;4855833;29;19919;-78
2023/10/29 18:02:24;;;;;;;;;;;14.20;99.90;;;;;;4853340;29;20199;-79
2023/10/29 18:04:58;;;;;;;;;;;14.20;99.90;;;;;;4863562;29;19912;-78
2023/10/29 18:11:21;;;;;;;;;;;14.20;99.90;;;;;;4838856;29;19919;-79
2023/10/29 18:14:28;;;;;;;;;;;14.20;99.90;;;;;;4820959;29;19957;-77
2023/10/29 18:17:16;;;;;;;;;;;;;;;;;;;;;
2023/10/29 18:20:06;;;;;;;;;;;14.10;99.90;;;;;;4868238;29;19916;-77
2023/10/29 18:23:19;;;;;;;;;;;14.10;99.90;;;;;;4798428;29;19913;-77
2023/10/29 18:25:44;;;;;;;;;;;14.10;99.90;;;;;;4812216;29;19932;-77
2023/10/29 18:28:38;;;;;;;;;;;14.00;99.90;;;;;;4797007;30;19914;-78
2023/10/29 18:31:04;;;;;;;;;;;14.10;99.90;;;;;;4796424;30;19919;-76
2023/10/29 18:33:55;;;;;;;;;;;14.00;99.90;;;;;;4793775;30;19921;-76
2023/10/29 18:36:25;;;;;;;;;;;13.90;99.90;;;;;;4787978;30;19914;-76
2023/10/29 18:41:47;;;;;;;;;;;13.80;99.90;;;;;;4794989;30;19917;-77
2023/10/29 18:44:30;;;;;;;;;;;13.80;99.90;;;;;;4781582;30;20235;-76
2023/10/29 18:47:02;;;;;;;;;;;13.70;99.90;;;;;;4793872;30;19960;-76
2023/10/29 18:49:29;;;;;;;;;;;13.80;99.90;;;;;;4765635;30;19959;-76
2023/10/29 18:51:57;;;;;;;;;;;13.70;99.90;;;;;;4796443;30;19913;-77
2023/10/29 18:57:22;;;;;;;;;;;13.70;99.90;;;;;;4743467;30;19982;-76
2023/10/29 18:59:48;;;;;;;;;;;13.70;99.90;;;;;;4748497;30;20166;-77
2023/10/29 19:02:20;;;;;;;;;;;13.60;99.90;;;;;;4805642;29;19996;-78
2023/10/29 19:04:52;;;;;;;;;;;13.60;99.90;;;;;;4846057;29;19908;-78
2023/10/29 19:07:19;;;;;;;;;;;13.60;99.90;;;;;;4869513;29;19959;-77
2023/10/29 19:09:44;;;;;;;;;;;13.60;99.90;;;;;;4860321;29;19932;-76
2023/10/29 19:12:17;;;;;;;;;;;13.60;99.90;;;;;;4875732;29;19909;-75
2023/10/29 19:14:43;;;;;;;;;;;13.60;99.90;;;;;;4856821;29;20038;-76
2023/10/29 19:17:12;;;;;;;;;;;13.70;99.90;;;;;;4874067;29;19912;-77
2023/10/29 19:19:40;;;;;;;;;;;13.70;99.90;;;;;;4876798;29;19908;-79
2023/10/29 19:22:28;;;;;;;;;;;13.70;99.90;;;;;;4877457;29;20138;-81
2023/10/29 19:25:23;;;;;;;;;;;13.70;99.90;;;;;;4871286;29;20213;-79
2023/10/29 19:28:16;;;;;;;;;;;13.70;99.90;;;;;;4858137;29;19932;-80
2023/10/29 19:31:11;;;;;;;;;;;13.70;99.90;;;;;;4840450;29;19913;-79
2023/10/29 19:34:14;;;;;;;;;;;13.60;99.90;;;;;;4823966;29;19939;-79
2023/10/29 19:37:01;;;;;;;;;;;13.60;99.90;;;;;;4805825;29;19924;-77
2023/10/29 19:40:10;;;;;;;;;;;13.60;99.90;;;;;;4838727;29;19938;-78
2023/10/29 19:43:06;;;;;;;;;;;13.60;99.90;;;;;;4837533;29;19924;-79
2023/10/29 19:45:38;;;;;;;;;;;13.50;99.90;;;;;;4836861;29;19941;-78
2023/10/29 19:51:56;;;;;;;;;;;13.40;99.90;;;;;;4819761;29;20106;-78
2023/10/29 19:57:48;;;;;;;;;;;13.40;99.90;;;;;;4819242;29;19913;-80
2023/10/29 20:03:12;;;;;;;;;;;13.30;99.90;;;;;;4803952;29;19920;-78
2023/10/29 20:06:12;;;;;;;;;;;13.30;99.90;;;;;;4822459;29;19982;-78
2023/10/29 20:08:42;;;;;;;;;;;13.30;99.90;;;;;;4825476;29;19917;-78
2023/10/29 20:11:32;;;;;;;;;;;13.20;99.90;;;;;;4824276;29;19931;-80
2023/10/29 20:14:16;;;;;;;;;;;13.20;99.90;;;;;;4822264;29;20199;-78
2023/10/29 20:16:44;;;;;;;;;;;13.20;99.90;;;;;;4806638;29;19956;-80
2023/10/29 20:19:11;;;;;;;;;;;13.20;99.90;;;;;;4824023;29;20216;-75
2023/10/29 20:21:57;;;;;;;;;;;13.20;99.90;;;;;;4829133;29;19914;-77
2023/10/29 20:25:01;;;;;;;;;;;13.20;99.90;;;;;;4796674;29;19930;-75
2023/10/29 20:27:42;;;;;;;;;;;13.10;99.90;;;;;;4833967;29;19917;-75
2023/10/29 20:30:09;;;;;;;;;;;13.10;99.90;;;;;;4834132;29;20180;-79
2023/10/29 20:32:34;;;;;;;;;;;13.10;99.90;;;;;;4820491;29;19917;-78
2023/10/29 20:35:00;;;;;;;;;;;13.00;99.90;;;;;;4834854;29;19952;-74
2023/10/29 20:37:33;;;;;;;;;;;13.00;99.90;;;;;;4822438;29;19920;-73
2023/10/29 20:40:14;;;;;;;;;;;12.90;99.90;;;;;;4819089;29;19935;-75
2023/10/29 20:42:54;;;;;;;;;;;12.90;99.90;;;;;;4820163;29;19951;-76
2023/10/29 20:46:08;;;;;;;;;;;12.90;99.90;;;;;;4833557;29;20241;-75
2023/10/29 20:48:58;;;;;;;;;;;12.90;99.90;;;;;;4815768;29;19920;-76
2023/10/29 20:51:24;;;;;;;;;;;12.90;99.90;;;;;;4831788;29;19913;-74
2023/10/29 20:53:59;;;;;;;;;;;12.90;99.90;;;;;;4818568;29;19943;-76
2023/10/29 20:56:54;;;;;;;;;;;12.90;99.90;;;;;;4824932;29;19917;-74
2023/10/29 20:59:24;;;;;;;;;;;12.90;99.90;;;;;;4842764;29;19935;-76
2023/10/29 21:02:16;;;;;;;;;;;12.90;99.90;;;;;;4871451;29;19922;-76
2023/10/29 21:04:54;;;;;;;;;;;12.90;99.90;;;;;;4854971;29;20153;-76
2023/10/29 21:07:19;;;;;;;;;;;12.90;99.90;;;;;;4870974;29;19920;-76
2023/10/29 21:09:45;;;;;;;;;;;12.90;99.90;;;;;;4886571;29;19959;-74
2023/10/29 21:12:11;;;;;;;;;;;12.90;99.90;;;;;;4870219;29;19918;-75
2023/10/29 21:14:40;;;;;;;;;;;12.90;99.90;;;;;;4871610;29;20246;-75
2023/10/29 21:17:42;;;;;;;;;;;12.90;99.90;;;;;;4871837;29;19919;-75
2023/10/29 21:20:38;;;;;;;;;;;12.90;99.90;;;;;;4851473;29;20178;-73
2023/10/29 21:26:46;;;;;;;;;;;12.90;99.90;;;;;;4871859;29;19927;-75
2023/10/29 21:29:39;;;;;;;;;;;12.90;99.90;;;;;;4871597;29;19991;-75
2023/10/29 21:32:05;;;;;;;;;;;12.90;99.90;;;;;;4870465;29;19912;-75
2023/10/29 21:34:30;;;;;;;;;;;12.90;99.90;;;;;;4871298;29;19912;-78
2023/10/29 21:37:11;;;;;;;;;;;12.90;99.90;;;;;;4855059;29;19912;-77
2023/10/29 21:40:06;;;;;;;;;;;13.00;99.90;;;;;;4863450;29;19939;-77
2023/10/29 21:43:08;;;;;;;;;;;13.00;99.90;;;;;;4872178;29;20000;-76
2023/10/29 21:45:47;;;;;;;;;;;13.00;99.90;;;;;;4839340;29;19920;-77
2023/10/29 21:48:12;;;;;;;;;;;13.00;99.90;;;;;;4874847;29;19978;-77
2023/10/29 21:54:05;;;;;;;;;;;12.90;99.90;;;;;;4861557;29;19944;-79
2023/10/29 21:56:39;;;;;;;;;;;12.90;99.90;;;;;;4853646;29;19920;-78
2023/10/29 22:10:04;;;;;;;;;;;12.90;99.90;;;;;;4849779;29;19920;-77
2023/10/29 22:12:49;;;;;;;;;;;12.90;99.90;;;;;;4850542;29;19913;-78
2023/10/29 22:18:38;;;;;;;;;;;12.90;99.90;;;;;;4869351;29;19918;-77
2023/10/29 22:21:09;;;;;;;;;;;12.90;99.90;;;;;;4869121;29;19979;-76
2023/10/29 22:23:47;;;;;;;;;;;12.90;99.90;;;;;;4852609;29;20238;-75
2023/10/29 22:29:58;;;;;;;;;;;12.90;99.90;;;;;;4832701;29;19912;-76
2023/10/29 22:32:52;;;;;;;;;;;12.90;99.90;;;;;;4832788;29;19996;-75
2023/10/29 22:50:03;;;;;;;;;;;12.80;99.90;;;;;;4781078;30;19921;-77
2023/10/29 22:52:55;;;;;;;;;;;12.80;99.90;;;;;;4726908;30;19930;-77
2023/10/29 22:55:32;;;;;;;;;;;12.80;99.90;;;;;;4722577;30;19985;-77
2023/10/29 22:58:23;;;;;;;;;;;12.80;99.90;;;;;;4746849;30;20145;-80
2023/10/29 23:01:10;;;;;;;;;;;12.80;99.90;;;;;;4741152;30;19923;-77
2023/10/29 23:04:22;;;;;;;;;;;12.80;99.90;;;;;;4725191;30;19921;-77
2023/10/29 23:07:12;;;;;;;;;;;12.70;99.90;;;;;;4724391;30;19967;-77
2023/10/29 23:09:37;;;;;;;;;;;12.70;99.90;;;;;;4736223;30;20085;-78
2023/10/29 23:14:50;;;;;;;;;;;12.70;99.90;;;;;;4736280;30;19931;-79
2023/10/29 23:17:16;;;;;;;;;;;12.70;99.90;;;;;;4723684;30;20109;-80
2023/10/29 23:20:20;;;;;;;;;;;12.80;99.90;;;;;;4708219;30;19939;-79
2023/10/29 23:23:40;;;;;;;;;;;;;;;;;;;;;
2023/10/29 23:30:13;;;;;;;;;;;12.80;99.90;;;;;;4754506;30;19944;-78
2023/10/29 23:40:23;;;;;;;;;;;12.80;99.90;;;;;;4776271;30;19920;-79
2023/10/29 23:46:23;;;;;;;;;;;12.90;99.90;;;;;;4779175;30;20239;-79
